Pescara - LIBP

Metar : METAR LIBP 270950Z VRB02KT 9999 SCT015 SCT030 19/15 Q1007=

Taf : TAF LIBP 270500Z 2706/2806 VRB05KT 9000 SCT010 BKN030 TEMPO 2706/2712 4000 RA=

 Scopri come leggere i bollettini codificati...


Storico

LIBP 270850Z VRB01KT 9999 SCT010 SCT030 18/15 Q1008
LIBP 270750Z 26003KT 230V330 8000 FEW010 SCT030 BKN050 17/15 Q1008
LIBP 270650Z VRB02KT 9999 SCT040 BKN080 17/15 Q1008
LIBP 270550Z 19003KT 9999 FEW010 BKN030 16/15 Q1008
LIBP 270450Z AUTO 20003KT 9999 FEW014/// OVC029/// 16/15 Q1009
LIBP 270433Z AUTO 20003KT 9999 FEW014/// BKN029/// 16/15 Q1008
LIBP 270353Z AUTO 25001KT 9999 OVC014/// 16/15 Q1008
LIBP 270350Z AUTO 25001KT 9999 OVC015/// 16/15 Q1008
LIBP 270250Z AUTO VRB02KT 9999 FEW014/// OVC037/// 16/15 Q1008
LIBP 270150Z AUTO 31003KT 260V360 9999 OVC013/// 16/14 Q1009
LIBP 270050Z AUTO VRB02KT 9999 OVC014/// 16/14 Q1009
LIBP 262350Z AUTO VRB02KT 9999 FEW050/// BKN072/// BKN100/// 16/14 Q1010
LIBP 262250Z AUTO 10007KT 070V130 9999 OVC074/// 17/14 Q1011
LIBP 262150Z AUTO 10005KT 050V130 9999 -RA OVC067/// 17/14 Q1011
LIBP 262135Z AUTO VRB03KT 9999 RA OVC070/// 17/14 Q1011
LIBP 262133Z AUTO VRB02KT 9999 -RA OVC070/// 17/14 Q1011
LIBP 262132Z AUTO VRB02KT 9999 RA OVC071/// 17/14 Q1011
LIBP 262050Z 06003KT 010V140 9999 FEW015 SCT035 17/14 Q1011
LIBP 261950Z VRB04KT 9999 FEW010 SCT040 BKN080 17/15 Q1011
LIBP 261850Z 09006KT 060V120 9999 FEW020 SCT070 16/14 Q1011
LIBP 261750Z 10010KT 070V130 9999 -RA FEW020 SCT065 17/14 Q1011
LIBP 261650Z 11010KT 080V150 8000 -RA SCT010 BKN040 17/15 Q1011
LIBP 261550Z 11012KT 8000 -RA FEW010 SCT040 17/16 Q1011
LIBP 261450Z 10010KT 9999 BKN010 18/17 Q1011
LIBP 261350Z 09010KT 9999 BKN008 18/16 Q1011
LIBP 261250Z 09011KT 050V130 9999 -RA BKN008 18/17 Q1012 RERA
LIBP 261225Z 08011KT 9999 -RA SCT008 BKN030 18/17 Q1012 RERA
LIBP 261150Z 09010KT 9999 RA FEW005 SCT010 BKN070 18/16 Q1013
LIBP 261106Z 09007KT 070V130 8000 RA SCT010 BKN040 18/17 Q1013
LIBP 261050Z 10005KT 060V130 8000 -RA FEW015 BKN040 18/16 Q1013
LIBP 260950Z 04007KT 9999 SCT020 BKN080 19/16 Q1012
LIBP 260850Z 08004KT 050V120 9999 FEW010 SCT040 BKN080 19/16 Q1013
LIBP 260750Z 11004KT 080V140 9999 -RA SCT010 BKN040 18/15 Q1013
LIBP 260650Z VRB01KT 9000 SCT015 BKN080 18/16 Q1013
LIBP 260550Z VRB01KT 9000 -RA FEW012 SCT020 BKN080 17/16 Q1013
LIBP 260513Z 03002KT 9000 -RA SCT012 BKN040 17/16 Q1013
LIBP 260450Z AUTO 02002KT 9999 -RA BKN012/// OVC040/// 17/16 Q1013
LIBP 260405Z AUTO VRB01KT 7000 -RA SCT015/// OVC046/// 17/16 Q1013
LIBP 260350Z AUTO VRB01KT 3800 -RA BR FEW023/// OVC045/// 17/16 Q1013
LIBP 260250Z AUTO 21001KT 4100 -RA BR SCT051/// OVC078/// 17/16 Q1013
LIBP 260214Z AUTO 24002KT 4900 -RA BR SCT005/// OVC071/// 17/16 Q1013
LIBP 260150Z AUTO 22002KT 5000 -RA OVC081/// 17/16 Q1013
LIBP 260127Z AUTO 20003KT 7000 -RA SCT072/// OVC100/// 17/16 Q1013
LIBP 260108Z AUTO 20002KT 4900 -RA BR BKN062/// OVC071/// 17/16 Q1013
LIBP 260050Z AUTO 18002KT 6000 -RA OVC058/// 17/16 Q1013
LIBP 252350Z AUTO VRB02KT 7000 -RA OVC089/// 18/17 Q1014
LIBP 252250Z AUTO VRB01KT 9999 -RA OVC082/// 18/17 Q1014
LIBP 252150Z AUTO 09003KT 9999 -RA FEW010/// OVC087/// 19/17 Q1015
LIBP 252138Z AUTO 09004KT 9999 -DZ FEW011/// OVC087/// 19/17 Q1014
LIBP 252137Z AUTO 09004KT 9999 DZ FEW011/// OVC087/// 19/17 Q1014
LIBP 252050Z 05005KT 9999 FEW050 19/16 Q1014
LIBP 251950Z 05003KT 9999 FEW050 SCT100 19/15 Q1014
LIBP 251850Z 05004KT 9999 FEW040 19/15 Q1014
LIBP 251750Z 06003KT CAVOK 20/12 Q1013
LIBP 251650Z 10005KT 070V130 9999 FEW090 21/12 Q1013
LIBP 251550Z 10006KT 050V140 CAVOK 21/13 Q1013
LIBP 251450Z 08005KT 050V130 9999 FEW090 22/15 Q1014
LIBP 251350Z 08008KT 040V110 9999 FEW090 22/16 Q1014
LIBP 251253Z 08009KT 060V120 CAVOK 23/16 Q1014
LIBP 251250Z 08008KT CAVOK 23/15 Q1014
LIBP 251150Z 06010KT CAVOK 23/16 Q1014
LIBP 251050Z 06010KT CAVOK 23/15 Q1015
LIBP 250950Z 06007KT CAVOK 23/16 Q1015
LIBP 250850Z 05006KT 010V080 CAVOK 22/15 Q1014
LIBP 250750Z 04004KT CAVOK 23/15 Q1014
LIBP 250650Z 22003KT 190V260 CAVOK 21/14 Q1014
LIBP 250550Z 22004KT 190V250 CAVOK 17/13 Q1014
LIBP 250450Z AUTO 21004KT 9999 NCD 14/12 Q1014
LIBP 250350Z AUTO 22005KT 9999 NCD 12/11 Q1013
LIBP 250250Z AUTO 21004KT 9999 NCD 13/11 Q1013
LIBP 250150Z AUTO 21004KT 9999 NCD 13/11 Q1013
LIBP 250050Z AUTO 21005KT 9999 NCD 13/12 Q1013
LIBP 242350Z AUTO 21003KT 9999 FEW087/// 14/13 Q1013
LIBP 242250Z AUTO 22003KT 9999 NCD 16/15 Q1014
LIBP 242150Z AUTO 21004KT 9999 NCD 16/14 Q1014
LIBP 242050Z 26002KT CAVOK 18/15 Q1013
LIBP 241950Z 25004KT 9999 SCT110 20/16 Q1013
LIBP 241850Z 20004KT 9999 FEW070 SCT090 19/15 Q1012
LIBP 241750Z 06004KT 9999 SCT070 SCT090 20/15 Q1013
LIBP 241650Z 03004KT 9999 SCT070 SCT090 21/15 Q1012
LIBP 241550Z VRB03KT 9999 SCT080 SCT100 23/13 Q1013
LIBP 241450Z 08003KT 350V110 9999 SCT080 SCT100 22/14 Q1013
LIBP 241350Z 08006KT 050V110 9999 SCT070 SCT090 22/13 Q1013
LIBP 241150Z 07010KT 9999 VCSH FEW050 23/13 Q1013
LIBP 241050Z 06009KT CAVOK 23/13 Q1014
LIBP 240950Z 07010KT CAVOK 23/14 Q1014
LIBP 240850Z 07004KT 020V170 CAVOK 24/13 Q1014
LIBP 240750Z 24004KT 200V300 CAVOK 22/13 Q1014
LIBP 240650Z 21005KT CAVOK 20/12 Q1014
LIBP 240550Z 23005KT 200V260 CAVOK 17/12 Q1015
LIBP 240450Z AUTO 22004KT 9999 NCD 13/12 Q1014
LIBP 240350Z AUTO 24003KT 9999 NCD 11/10 Q1014
LIBP 240250Z AUTO 22003KT 9999 NCD 11/10 Q1014
LIBP 240150Z AUTO 22003KT 9999 NCD 11/10 Q1014
LIBP 240050Z AUTO 24004KT 9999 NCD 13/11 Q1015
LIBP 232350Z AUTO 23004KT 9999 NCD 13/11 Q1015
LIBP 232250Z AUTO 23005KT 9999 NCD 13/11 Q1015
LIBP 232150Z AUTO 21005KT 9999 NCD 13/12 Q1015
LIBP 232050Z VRB02KT CAVOK 15/13 Q1015
LIBP 231950Z 22003KT CAVOK 17/14 Q1015
LIBP 231850Z VRB02KT CAVOK 19/14 Q1015
LIBP 231750Z 05002KT CAVOK 20/14 Q1015
LIBP 231650Z 03005KT CAVOK 21/14 Q1015

Informazioni elaborate utilizzando, tra l’altro, dati e prodotti del Servizio Meteorologico dell’Aeronautica Militare pubblicati sul sito www.meteoam.it e della National Oceanic and Atmospheric Administration (NOAA)

Ultimi caricamenti...


LX-WJB WiJet Honda HA-420 Hondajet

 


LX-WJB WiJet Hnda HA-420 Hondajet

 


LX-WJB WiJet Honda HA-420 Hondajet

Questo sito non utilizza cookie di profilazione. Il sito utilizza cookie tecnici, di analisi anonima di prima parte e di terze parti per servizi di social network.